sensor_id;sensor_type;location;lat;lon;timestamp;P1;durP1;ratioP1;P2;durP2;ratioP2
45043;SDS011;30784;48.490;9.688;2022-09-24T00:00:44;10.00;;;4.25;;
45043;SDS011;30784;48.490;9.688;2022-09-24T00:03:16;8.60;;;3.90;;
45043;SDS011;30784;48.490;9.688;2022-09-24T00:05:43;7.68;;;3.80;;
45043;SDS011;30784;48.490;9.688;2022-09-24T00:08:10;8.40;;;4.38;;
45043;SDS011;30784;48.490;9.688;2022-09-24T00:10:38;8.07;;;4.03;;
45043;SDS011;30784;48.490;9.688;2022-09-24T00:13:05;7.55;;;3.88;;
45043;SDS011;30784;48.490;9.688;2022-09-24T00:15:36;8.25;;;3.92;;
45043;SDS011;30784;48.490;9.688;2022-09-24T00:18:06;7.80;;;4.10;;
45043;SDS011;30784;48.490;9.688;2022-09-24T00:20:32;16.08;;;10.85;;
45043;SDS011;30784;48.490;9.688;2022-09-24T00:22:59;11.45;;;6.28;;
45043;SDS011;30784;48.490;9.688;2022-09-24T00:25:25;9.38;;;5.15;;
45043;SDS011;30784;48.490;9.688;2022-09-24T00:28:11;8.02;;;4.20;;
45043;SDS011;30784;48.490;9.688;2022-09-24T00:30:37;7.90;;;3.88;;
45043;SDS011;30784;48.490;9.688;2022-09-24T00:33:04;7.57;;;3.70;;
45043;SDS011;30784;48.490;9.688;2022-09-24T00:35:30;8.23;;;3.67;;
45043;SDS011;30784;48.490;9.688;2022-09-24T00:38:00;17.60;;;12.00;;
45043;SDS011;30784;48.490;9.688;2022-09-24T00:40:27;12.48;;;6.85;;
45043;SDS011;30784;48.490;9.688;2022-09-24T00:42:53;10.13;;;4.72;;
45043;SDS011;30784;48.490;9.688;2022-09-24T00:45:19;7.90;;;3.67;;
45043;SDS011;30784;48.490;9.688;2022-09-24T00:47:45;7.22;;;3.53;;
45043;SDS011;30784;48.490;9.688;2022-09-24T00:50:15;8.10;;;3.55;;
45043;SDS011;30784;48.490;9.688;2022-09-24T00:58:21;7.50;;;2.90;;
45043;SDS011;30784;48.490;9.688;2022-09-24T01:00:47;7.63;;;3.00;;
45043;SDS011;30784;48.490;9.688;2022-09-24T01:03:18;7.15;;;2.67;;
45043;SDS011;30784;48.490;9.688;2022-09-24T01:05:47;7.55;;;2.60;;
45043;SDS011;30784;48.490;9.688;2022-09-24T01:08:13;6.43;;;2.80;;
45043;SDS011;30784;48.490;9.688;2022-09-24T01:10:53;10.30;;;4.13;;
45043;SDS011;30784;48.490;9.688;2022-09-24T01:13:40;6.18;;;2.80;;
45043;SDS011;30784;48.490;9.688;2022-09-24T01:16:27;6.35;;;2.50;;
45043;SDS011;30784;48.490;9.688;2022-09-24T01:21:52;6.45;;;2.10;;
45043;SDS011;30784;48.490;9.688;2022-09-24T01:24:28;5.07;;;2.05;;
45043;SDS011;30784;48.490;9.688;2022-09-24T01:27:13;5.65;;;2.00;;
45043;SDS011;30784;48.490;9.688;2022-09-24T01:35:11;7.90;;;2.42;;
45043;SDS011;30784;48.490;9.688;2022-09-24T01:37:49;5.55;;;2.13;;
45043;SDS011;30784;48.490;9.688;2022-09-24T01:40:25;6.63;;;2.15;;
45043;SDS011;30784;48.490;9.688;2022-09-24T01:42:53;5.90;;;2.13;;
45043;SDS011;30784;48.490;9.688;2022-09-24T01:45:21;6.97;;;2.17;;
45043;SDS011;30784;48.490;9.688;2022-09-24T01:47:48;5.15;;;2.10;;
45043;SDS011;30784;48.490;9.688;2022-09-24T01:50:15;8.40;;;2.05;;
45043;SDS011;30784;48.490;9.688;2022-09-24T01:52:52;6.07;;;1.98;;
45043;SDS011;30784;48.490;9.688;2022-09-24T01:55:25;5.40;;;2.20;;
45043;SDS011;30784;48.490;9.688;2022-09-24T01:58:00;5.30;;;1.90;;
45043;SDS011;30784;48.490;9.688;2022-09-24T02:00:33;5.43;;;2.00;;
45043;SDS011;30784;48.490;9.688;2022-09-24T02:03:06;15.23;;;1.98;;
45043;SDS011;30784;48.490;9.688;2022-09-24T02:05:43;5.85;;;2.08;;
45043;SDS011;30784;48.490;9.688;2022-09-24T02:08:45;5.30;;;2.00;;
45043;SDS011;30784;48.490;9.688;2022-09-24T02:13:42;6.20;;;2.00;;
45043;SDS011;30784;48.490;9.688;2022-09-24T02:16:14;6.35;;;2.00;;
45043;SDS011;30784;48.490;9.688;2022-09-24T02:18:45;6.80;;;2.13;;
45043;SDS011;30784;48.490;9.688;2022-09-24T02:21:13;7.38;;;2.30;;
45043;SDS011;30784;48.490;9.688;2022-09-24T02:23:43;6.78;;;2.15;;
45043;SDS011;30784;48.490;9.688;2022-09-24T02:26:13;6.55;;;2.20;;
45043;SDS011;30784;48.490;9.688;2022-09-24T02:28:39;5.90;;;2.20;;
45043;SDS011;30784;48.490;9.688;2022-09-24T02:31:24;5.20;;;1.90;;
45043;SDS011;30784;48.490;9.688;2022-09-24T02:33:54;5.07;;;1.80;;
45043;SDS011;30784;48.490;9.688;2022-09-24T02:36:40;7.47;;;2.15;;
45043;SDS011;30784;48.490;9.688;2022-09-24T02:39:06;5.25;;;1.95;;
45043;SDS011;30784;48.490;9.688;2022-09-24T02:41:31;6.07;;;2.25;;
45043;SDS011;30784;48.490;9.688;2022-09-24T02:43:58;5.75;;;2.05;;
45043;SDS011;30784;48.490;9.688;2022-09-24T02:46:24;5.72;;;1.80;;
45043;SDS011;30784;48.490;9.688;2022-09-24T02:48:49;5.22;;;1.90;;
45043;SDS011;30784;48.490;9.688;2022-09-24T02:51:15;5.57;;;2.00;;
45043;SDS011;30784;48.490;9.688;2022-09-24T02:53:41;5.75;;;2.03;;
45043;SDS011;30784;48.490;9.688;2022-09-24T02:56:06;7.60;;;1.90;;
45043;SDS011;30784;48.490;9.688;2022-09-24T02:58:32;5.90;;;2.05;;
45043;SDS011;30784;48.490;9.688;2022-09-24T03:01:01;5.30;;;1.80;;
45043;SDS011;30784;48.490;9.688;2022-09-24T03:03:27;7.22;;;3.13;;
45043;SDS011;30784;48.490;9.688;2022-09-24T03:05:53;6.07;;;2.22;;
45043;SDS011;30784;48.490;9.688;2022-09-24T03:08:19;5.55;;;1.88;;
45043;SDS011;30784;48.490;9.688;2022-09-24T03:10:45;5.55;;;1.92;;
45043;SDS011;30784;48.490;9.688;2022-09-24T03:13:11;6.00;;;1.90;;
45043;SDS011;30784;48.490;9.688;2022-09-24T03:15:37;6.00;;;1.92;;
45043;SDS011;30784;48.490;9.688;2022-09-24T03:18:03;6.70;;;1.80;;
45043;SDS011;30784;48.490;9.688;2022-09-24T03:20:29;5.13;;;1.90;;
45043;SDS011;30784;48.490;9.688;2022-09-24T03:22:54;5.47;;;1.70;;
45043;SDS011;30784;48.490;9.688;2022-09-24T03:25:20;6.55;;;2.10;;
45043;SDS011;30784;48.490;9.688;2022-09-24T03:27:46;6.20;;;2.60;;
45043;SDS011;30784;48.490;9.688;2022-09-24T03:30:12;11.13;;;6.18;;
45043;SDS011;30784;48.490;9.688;2022-09-24T03:32:57;9.15;;;3.38;;
45043;SDS011;30784;48.490;9.688;2022-09-24T03:35:23;7.20;;;2.33;;
45043;SDS011;30784;48.490;9.688;2022-09-24T03:37:49;5.43;;;2.10;;
45043;SDS011;30784;48.490;9.688;2022-09-24T03:40:15;4.90;;;1.83;;
45043;SDS011;30784;48.490;9.688;2022-09-24T03:42:41;6.10;;;2.10;;
45043;SDS011;30784;48.490;9.688;2022-09-24T03:45:07;6.18;;;2.00;;
45043;SDS011;30784;48.490;9.688;2022-09-24T03:47:33;5.68;;;2.22;;
45043;SDS011;30784;48.490;9.688;2022-09-24T03:49:58;6.05;;;2.40;;
45043;SDS011;30784;48.490;9.688;2022-09-24T03:52:24;6.07;;;2.13;;
45043;SDS011;30784;48.490;9.688;2022-09-24T03:54:50;5.47;;;2.30;;
45043;SDS011;30784;48.490;9.688;2022-09-24T03:57:16;5.72;;;2.22;;
45043;SDS011;30784;48.490;9.688;2022-09-24T03:59:42;5.47;;;2.20;;
45043;SDS011;30784;48.490;9.688;2022-09-24T04:02:09;7.53;;;2.63;;
45043;SDS011;30784;48.490;9.688;2022-09-24T04:04:35;5.53;;;2.30;;
45043;SDS011;30784;48.490;9.688;2022-09-24T04:07:01;6.80;;;2.40;;
45043;SDS011;30784;48.490;9.688;2022-09-24T04:09:27;5.10;;;1.92;;
45043;SDS011;30784;48.490;9.688;2022-09-24T04:11:53;6.97;;;1.95;;
45043;SDS011;30784;48.490;9.688;2022-09-24T04:14:19;6.43;;;2.10;;
45043;SDS011;30784;48.490;9.688;2022-09-24T04:16:45;5.30;;;2.03;;
45043;SDS011;30784;48.490;9.688;2022-09-24T04:19:11;7.57;;;2.05;;
45043;SDS011;30784;48.490;9.688;2022-09-24T04:21:40;6.40;;;1.90;;
45043;SDS011;30784;48.490;9.688;2022-09-24T04:24:06;5.40;;;2.08;;
45043;SDS011;30784;48.490;9.688;2022-09-24T04:26:31;4.93;;;1.83;;
45043;SDS011;30784;48.490;9.688;2022-09-24T04:28:57;6.32;;;1.90;;
45043;SDS011;30784;48.490;9.688;2022-09-24T04:31:23;5.38;;;1.90;;
45043;SDS011;30784;48.490;9.688;2022-09-24T04:33:50;6.28;;;2.20;;
45043;SDS011;30784;48.490;9.688;2022-09-24T04:36:16;6.00;;;2.35;;
45043;SDS011;30784;48.490;9.688;2022-09-24T04:38:43;7.75;;;2.60;;
45043;SDS011;30784;48.490;9.688;2022-09-24T04:41:10;7.57;;;3.05;;
45043;SDS011;30784;48.490;9.688;2022-09-24T04:43:36;9.15;;;3.08;;
45043;SDS011;30784;48.490;9.688;2022-09-24T04:46:03;7.05;;;2.75;;
45043;SDS011;30784;48.490;9.688;2022-09-24T04:48:29;6.43;;;2.50;;
45043;SDS011;30784;48.490;9.688;2022-09-24T04:50:55;6.15;;;2.40;;
45043;SDS011;30784;48.490;9.688;2022-09-24T04:53:21;10.30;;;4.38;;
45043;SDS011;30784;48.490;9.688;2022-09-24T04:55:47;15.88;;;10.23;;
45043;SDS011;30784;48.490;9.688;2022-09-24T04:58:13;14.27;;;8.32;;
45043;SDS011;30784;48.490;9.688;2022-09-24T05:00:39;10.35;;;4.22;;
45043;SDS011;30784;48.490;9.688;2022-09-24T05:03:06;6.28;;;2.72;;
45043;SDS011;30784;48.490;9.688;2022-09-24T05:05:32;6.75;;;3.00;;
45043;SDS011;30784;48.490;9.688;2022-09-24T05:07:58;5.68;;;2.22;;
45043;SDS011;30784;48.490;9.688;2022-09-24T05:10:25;7.50;;;2.30;;
45043;SDS011;30784;48.490;9.688;2022-09-24T05:12:52;6.38;;;2.40;;
45043;SDS011;30784;48.490;9.688;2022-09-24T05:15:18;5.97;;;2.30;;
45043;SDS011;30784;48.490;9.688;2022-09-24T05:17:45;5.40;;;2.10;;
45043;SDS011;30784;48.490;9.688;2022-09-24T05:20:12;6.45;;;2.50;;
45043;SDS011;30784;48.490;9.688;2022-09-24T05:22:42;7.03;;;2.85;;
45043;SDS011;30784;48.490;9.688;2022-09-24T05:25:10;9.30;;;3.03;;
45043;SDS011;30784;48.490;9.688;2022-09-24T05:27:36;6.93;;;2.83;;
45043;SDS011;30784;48.490;9.688;2022-09-24T05:30:07;7.03;;;3.13;;
45043;SDS011;30784;48.490;9.688;2022-09-24T05:32:33;6.93;;;2.83;;
45043;SDS011;30784;48.490;9.688;2022-09-24T05:34:59;6.60;;;2.80;;
45043;SDS011;30784;48.490;9.688;2022-09-24T05:37:25;5.75;;;2.35;;
45043;SDS011;30784;48.490;9.688;2022-09-24T05:39:51;7.40;;;2.90;;
45043;SDS011;30784;48.490;9.688;2022-09-24T05:42:17;7.70;;;3.00;;
45043;SDS011;30784;48.490;9.688;2022-09-24T05:44:43;7.03;;;2.63;;
45043;SDS011;30784;48.490;9.688;2022-09-24T05:47:09;5.70;;;2.40;;
45043;SDS011;30784;48.490;9.688;2022-09-24T05:49:35;7.93;;;2.65;;
45043;SDS011;30784;48.490;9.688;2022-09-24T05:52:01;6.10;;;2.72;;
45043;SDS011;30784;48.490;9.688;2022-09-24T05:54:27;6.07;;;2.33;;
45043;SDS011;30784;48.490;9.688;2022-09-24T05:56:52;5.93;;;2.33;;
45043;SDS011;30784;48.490;9.688;2022-09-24T05:59:18;7.45;;;3.80;;
45043;SDS011;30784;48.490;9.688;2022-09-24T06:01:44;7.30;;;2.78;;
45043;SDS011;30784;48.490;9.688;2022-09-24T06:04:09;6.15;;;2.30;;
45043;SDS011;30784;48.490;9.688;2022-09-24T06:06:36;7.10;;;2.65;;
45043;SDS011;30784;48.490;9.688;2022-09-24T06:09:02;6.88;;;2.65;;
45043;SDS011;30784;48.490;9.688;2022-09-24T06:11:30;5.40;;;2.30;;
45043;SDS011;30784;48.490;9.688;2022-09-24T06:16:25;5.90;;;2.40;;
45043;SDS011;30784;48.490;9.688;2022-09-24T06:18:51;6.65;;;2.53;;
45043;SDS011;30784;48.490;9.688;2022-09-24T06:21:17;7.60;;;2.83;;
45043;SDS011;30784;48.490;9.688;2022-09-24T06:23:42;8.15;;;2.40;;
45043;SDS011;30784;48.490;9.688;2022-09-24T06:26:11;7.95;;;2.60;;
45043;SDS011;30784;48.490;9.688;2022-09-24T06:28:38;7.63;;;2.60;;
45043;SDS011;30784;48.490;9.688;2022-09-24T06:31:04;6.60;;;2.53;;
45043;SDS011;30784;48.490;9.688;2022-09-24T06:33:30;7.13;;;2.88;;
45043;SDS011;30784;48.490;9.688;2022-09-24T06:35:59;7.30;;;2.72;;
45043;SDS011;30784;48.490;9.688;2022-09-24T06:38:26;7.57;;;2.97;;
45043;SDS011;30784;48.490;9.688;2022-09-24T06:40:56;6.43;;;2.70;;
45043;SDS011;30784;48.490;9.688;2022-09-24T06:43:23;7.45;;;3.05;;
45043;SDS011;30784;48.490;9.688;2022-09-24T06:45:49;6.95;;;2.72;;
45043;SDS011;30784;48.490;9.688;2022-09-24T06:48:14;7.13;;;2.97;;
45043;SDS011;30784;48.490;9.688;2022-09-24T06:50:41;7.57;;;3.25;;
45043;SDS011;30784;48.490;9.688;2022-09-24T06:53:08;7.60;;;3.60;;
45043;SDS011;30784;48.490;9.688;2022-09-24T06:55:36;8.60;;;4.05;;
45043;SDS011;30784;48.490;9.688;2022-09-24T06:58:06;8.02;;;3.42;;
45043;SDS011;30784;48.490;9.688;2022-09-24T07:00:33;8.02;;;3.53;;
45043;SDS011;30784;48.490;9.688;2022-09-24T07:02:59;6.88;;;3.03;;
45043;SDS011;30784;48.490;9.688;2022-09-24T07:05:25;7.30;;;3.15;;
45043;SDS011;30784;48.490;9.688;2022-09-24T07:07:51;7.22;;;3.33;;
45043;SDS011;30784;48.490;9.688;2022-09-24T07:10:17;7.88;;;3.13;;
45043;SDS011;30784;48.490;9.688;2022-09-24T07:12:42;7.30;;;3.33;;
45043;SDS011;30784;48.490;9.688;2022-09-24T07:15:08;6.80;;;2.95;;
45043;SDS011;30784;48.490;9.688;2022-09-24T07:17:34;7.22;;;3.03;;
45043;SDS011;30784;48.490;9.688;2022-09-24T07:20:00;7.35;;;3.15;;
45043;SDS011;30784;48.490;9.688;2022-09-24T07:22:26;6.43;;;2.90;;
45043;SDS011;30784;48.490;9.688;2022-09-24T07:24:52;6.25;;;2.88;;
45043;SDS011;30784;48.490;9.688;2022-09-24T07:27:18;6.57;;;2.80;;
45043;SDS011;30784;48.490;9.688;2022-09-24T07:29:45;7.03;;;2.95;;
45043;SDS011;30784;48.490;9.688;2022-09-24T07:32:11;6.30;;;2.67;;
45043;SDS011;30784;48.490;9.688;2022-09-24T07:34:39;8.05;;;2.70;;
45043;SDS011;30784;48.490;9.688;2022-09-24T07:37:05;7.05;;;3.05;;
45043;SDS011;30784;48.490;9.688;2022-09-24T07:39:31;7.22;;;2.63;;
45043;SDS011;30784;48.490;9.688;2022-09-24T07:41:57;6.68;;;2.95;;
45043;SDS011;30784;48.490;9.688;2022-09-24T07:44:24;9.25;;;3.10;;
45043;SDS011;30784;48.490;9.688;2022-09-24T07:46:50;7.20;;;2.63;;
45043;SDS011;30784;48.490;9.688;2022-09-24T07:49:15;7.20;;;2.90;;
45043;SDS011;30784;48.490;9.688;2022-09-24T07:51:41;6.13;;;2.60;;
45043;SDS011;30784;48.490;9.688;2022-09-24T07:54:07;6.97;;;2.83;;
45043;SDS011;30784;48.490;9.688;2022-09-24T07:56:34;6.72;;;2.92;;
45043;SDS011;30784;48.490;9.688;2022-09-24T07:59:01;7.63;;;2.72;;
45043;SDS011;30784;48.490;9.688;2022-09-24T08:01:27;7.13;;;2.72;;
45043;SDS011;30784;48.490;9.688;2022-09-24T08:03:53;7.55;;;3.10;;
45043;SDS011;30784;48.490;9.688;2022-09-24T08:06:19;6.55;;;3.00;;
45043;SDS011;30784;48.490;9.688;2022-09-24T08:08:49;7.40;;;3.60;;
45043;SDS011;30784;48.490;9.688;2022-09-24T08:11:17;9.35;;;4.75;;
45043;SDS011;30784;48.490;9.688;2022-09-24T08:13:43;9.13;;;5.22;;
45043;SDS011;30784;48.490;9.688;2022-09-24T08:16:09;9.43;;;5.28;;
45043;SDS011;30784;48.490;9.688;2022-09-24T08:18:35;11.45;;;4.97;;
45043;SDS011;30784;48.490;9.688;2022-09-24T08:21:04;6.88;;;3.30;;
45043;SDS011;30784;48.490;9.688;2022-09-24T08:23:33;7.45;;;2.90;;
45043;SDS011;30784;48.490;9.688;2022-09-24T08:26:00;6.80;;;2.67;;
45043;SDS011;30784;48.490;9.688;2022-09-24T08:28:27;7.05;;;2.50;;
45043;SDS011;30784;48.490;9.688;2022-09-24T08:30:56;7.38;;;2.50;;
45043;SDS011;30784;48.490;9.688;2022-09-24T08:33:24;6.05;;;2.33;;
45043;SDS011;30784;48.490;9.688;2022-09-24T08:35:50;5.03;;;2.10;;
45043;SDS011;30784;48.490;9.688;2022-09-24T08:38:16;6.32;;;2.30;;
45043;SDS011;30784;48.490;9.688;2022-09-24T08:40:45;7.10;;;2.45;;
45043;SDS011;30784;48.490;9.688;2022-09-24T08:46:43;7.50;;;2.42;;
45043;SDS011;30784;48.490;9.688;2022-09-24T08:49:34;6.13;;;2.03;;
45043;SDS011;30784;48.490;9.688;2022-09-24T08:52:21;5.80;;;2.03;;
45043;SDS011;30784;48.490;9.688;2022-09-24T08:55:13;5.65;;;2.10;;
45043;SDS011;30784;48.490;9.688;2022-09-24T09:00:48;5.75;;;1.98;;
45043;SDS011;30784;48.490;9.688;2022-09-24T09:11:21;6.35;;;2.20;;
45043;SDS011;30784;48.490;9.688;2022-09-24T09:13:52;6.20;;;2.45;;
45043;SDS011;30784;48.490;9.688;2022-09-24T09:16:24;6.47;;;2.10;;
45043;SDS011;30784;48.490;9.688;2022-09-24T09:18:54;5.88;;;2.08;;
45043;SDS011;30784;48.490;9.688;2022-09-24T09:21:30;6.00;;;1.88;;
45043;SDS011;30784;48.490;9.688;2022-09-24T09:24:04;5.47;;;1.95;;
45043;SDS011;30784;48.490;9.688;2022-09-24T09:26:38;5.75;;;2.03;;
45043;SDS011;30784;48.490;9.688;2022-09-24T09:29:04;5.10;;;2.00;;
45043;SDS011;30784;48.490;9.688;2022-09-24T09:31:45;5.18;;;2.15;;
45043;SDS011;30784;48.490;9.688;2022-09-24T09:37:13;5.32;;;1.95;;
45043;SDS011;30784;48.490;9.688;2022-09-24T09:45:01;6.05;;;2.10;;
45043;SDS011;30784;48.490;9.688;2022-09-24T09:47:36;5.10;;;1.98;;
45043;SDS011;30784;48.490;9.688;2022-09-24T09:53:25;4.20;;;1.58;;
45043;SDS011;30784;48.490;9.688;2022-09-24T09:55:59;4.07;;;1.70;;
45043;SDS011;30784;48.490;9.688;2022-09-24T09:58:33;3.78;;;1.55;;
45043;SDS011;30784;48.490;9.688;2022-09-24T10:01:09;6.18;;;2.38;;
45043;SDS011;30784;48.490;9.688;2022-09-24T10:06:08;4.88;;;1.88;;
45043;SDS011;30784;48.490;9.688;2022-09-24T10:08:36;4.60;;;1.50;;
45043;SDS011;30784;48.490;9.688;2022-09-24T10:11:02;4.68;;;1.60;;
45043;SDS011;30784;48.490;9.688;2022-09-24T10:13:28;5.95;;;1.52;;
45043;SDS011;30784;48.490;9.688;2022-09-24T10:15:57;4.93;;;1.45;;
45043;SDS011;30784;48.490;9.688;2022-09-24T10:18:32;4.32;;;1.55;;
45043;SDS011;30784;48.490;9.688;2022-09-24T10:21:02;5.28;;;1.60;;
45043;SDS011;30784;48.490;9.688;2022-09-24T10:23:33;3.72;;;1.40;;
45043;SDS011;30784;48.490;9.688;2022-09-24T10:26:02;4.43;;;1.52;;
45043;SDS011;30784;48.490;9.688;2022-09-24T10:28:28;4.55;;;1.15;;
45043;SDS011;30784;48.490;9.688;2022-09-24T10:31:23;5.72;;;1.88;;
45043;SDS011;30784;48.490;9.688;2022-09-24T10:33:52;5.75;;;1.92;;
45043;SDS011;30784;48.490;9.688;2022-09-24T10:36:24;5.83;;;2.10;;
45043;SDS011;30784;48.490;9.688;2022-09-24T10:41:50;5.47;;;2.05;;
45043;SDS011;30784;48.490;9.688;2022-09-24T10:44:18;7.18;;;3.67;;
45043;SDS011;30784;48.490;9.688;2022-09-24T10:49:53;16.10;;;9.98;;
45043;SDS011;30784;48.490;9.688;2022-09-24T10:52:56;9.15;;;4.30;;
45043;SDS011;30784;48.490;9.688;2022-09-24T11:01:38;5.13;;;2.13;;
45043;SDS011;30784;48.490;9.688;2022-09-24T11:07:19;4.68;;;1.40;;
45043;SDS011;30784;48.490;9.688;2022-09-24T11:27:07;4.60;;;1.52;;
45043;SDS011;30784;48.490;9.688;2022-09-24T11:35:41;5.45;;;1.73;;
45043;SDS011;30784;48.490;9.688;2022-09-24T11:41:19;5.53;;;1.73;;
45043;SDS011;30784;48.490;9.688;2022-09-24T11:54:17;5.63;;;1.80;;
45043;SDS011;30784;48.490;9.688;2022-09-24T11:57:11;4.50;;;1.60;;
45043;SDS011;30784;48.490;9.688;2022-09-24T11:59:57;4.28;;;1.70;;
45043;SDS011;30784;48.490;9.688;2022-09-24T12:02:43;4.85;;;1.55;;
45043;SDS011;30784;48.490;9.688;2022-09-24T12:05:36;3.60;;;1.30;;
45043;SDS011;30784;48.490;9.688;2022-09-24T12:08:13;4.38;;;1.48;;
45043;SDS011;30784;48.490;9.688;2022-09-24T12:16:19;4.10;;;1.50;;
45043;SDS011;30784;48.490;9.688;2022-09-24T12:18:55;5.55;;;1.73;;
45043;SDS011;30784;48.490;9.688;2022-09-24T12:21:34;4.07;;;1.45;;
45043;SDS011;30784;48.490;9.688;2022-09-24T12:24:10;4.35;;;1.50;;
45043;SDS011;30784;48.490;9.688;2022-09-24T12:26:37;3.75;;;1.30;;
45043;SDS011;30784;48.490;9.688;2022-09-24T12:38:03;3.33;;;1.13;;
45043;SDS011;30784;48.490;9.688;2022-09-24T12:43:31;11.48;;;7.13;;
45043;SDS011;30784;48.490;9.688;2022-09-24T12:46:05;7.13;;;2.95;;
45043;SDS011;30784;48.490;9.688;2022-09-24T12:48:41;5.55;;;1.80;;
45043;SDS011;30784;48.490;9.688;2022-09-24T12:51:08;4.13;;;1.40;;
45043;SDS011;30784;48.490;9.688;2022-09-24T12:53:36;4.40;;;1.58;;
45043;SDS011;30784;48.490;9.688;2022-09-24T12:56:05;4.50;;;1.48;;
45043;SDS011;30784;48.490;9.688;2022-09-24T12:58:41;6.68;;;2.13;;
45043;SDS011;30784;48.490;9.688;2022-09-24T13:04:02;4.60;;;1.67;;
45043;SDS011;30784;48.490;9.688;2022-09-24T13:09:00;4.93;;;1.63;;
45043;SDS011;30784;48.490;9.688;2022-09-24T13:11:33;3.47;;;1.35;;
45043;SDS011;30784;48.490;9.688;2022-09-24T13:16:37;4.22;;;1.30;;
45043;SDS011;30784;48.490;9.688;2022-09-24T13:19:08;3.80;;;1.25;;
45043;SDS011;30784;48.490;9.688;2022-09-24T13:21:55;3.97;;;1.50;;
45043;SDS011;30784;48.490;9.688;2022-09-24T13:24:44;4.45;;;1.58;;
45043;SDS011;30784;48.490;9.688;2022-09-24T13:27:21;4.00;;;1.40;;
45043;SDS011;30784;48.490;9.688;2022-09-24T13:32:48;3.92;;;1.40;;
45043;SDS011;30784;48.490;9.688;2022-09-24T13:35:23;3.80;;;1.55;;
45043;SDS011;30784;48.490;9.688;2022-09-24T13:37:54;6.53;;;2.28;;
45043;SDS011;30784;48.490;9.688;2022-09-24T13:40:42;8.07;;;2.15;;
45043;SDS011;30784;48.490;9.688;2022-09-24T13:43:15;4.72;;;1.60;;
45043;SDS011;30784;48.490;9.688;2022-09-24T13:45:49;4.13;;;1.42;;
45043;SDS011;30784;48.490;9.688;2022-09-24T13:48:29;5.43;;;1.75;;
45043;SDS011;30784;48.490;9.688;2022-09-24T13:50:57;4.72;;;1.77;;
45043;SDS011;30784;48.490;9.688;2022-09-24T13:53:28;5.43;;;1.40;;
45043;SDS011;30784;48.490;9.688;2022-09-24T13:55:59;4.38;;;1.50;;
45043;SDS011;30784;48.490;9.688;2022-09-24T13:58:35;6.13;;;1.73;;
45043;SDS011;30784;48.490;9.688;2022-09-24T14:01:15;6.18;;;1.63;;
45043;SDS011;30784;48.490;9.688;2022-09-24T14:03:54;5.28;;;1.90;;
45043;SDS011;30784;48.490;9.688;2022-09-24T14:09:20;4.35;;;1.42;;
45043;SDS011;30784;48.490;9.688;2022-09-24T14:11:53;5.45;;;2.13;;
45043;SDS011;30784;48.490;9.688;2022-09-24T14:14:21;5.05;;;1.70;;
45043;SDS011;30784;48.490;9.688;2022-09-24T14:16:51;4.70;;;1.80;;
45043;SDS011;30784;48.490;9.688;2022-09-24T14:19:20;4.47;;;1.70;;
45043;SDS011;30784;48.490;9.688;2022-09-24T14:21:53;4.35;;;1.50;;
45043;SDS011;30784;48.490;9.688;2022-09-24T14:24:23;6.55;;;2.40;;
45043;SDS011;30784;48.490;9.688;2022-09-24T14:26:55;8.30;;;3.50;;
45043;SDS011;30784;48.490;9.688;2022-09-24T14:29:32;6.40;;;2.20;;
45043;SDS011;30784;48.490;9.688;2022-09-24T14:32:19;6.10;;;2.17;;
45043;SDS011;30784;48.490;9.688;2022-09-24T14:35:16;5.75;;;2.17;;
45043;SDS011;30784;48.490;9.688;2022-09-24T14:37:46;6.20;;;2.28;;
45043;SDS011;30784;48.490;9.688;2022-09-24T14:40:15;5.25;;;2.03;;
45043;SDS011;30784;48.490;9.688;2022-09-24T14:42:52;6.30;;;2.30;;
45043;SDS011;30784;48.490;9.688;2022-09-24T14:45:27;5.30;;;2.00;;
45043;SDS011;30784;48.490;9.688;2022-09-24T14:48:14;5.70;;;2.28;;
45043;SDS011;30784;48.490;9.688;2022-09-24T14:50:43;7.32;;;2.70;;
45043;SDS011;30784;48.490;9.688;2022-09-24T14:55:54;7.00;;;2.38;;
45043;SDS011;30784;48.490;9.688;2022-09-24T14:58:41;5.68;;;2.20;;
45043;SDS011;30784;48.490;9.688;2022-09-24T15:01:12;6.25;;;2.35;;
45043;SDS011;30784;48.490;9.688;2022-09-24T15:03:42;6.00;;;2.20;;
45043;SDS011;30784;48.490;9.688;2022-09-24T15:06:15;5.68;;;2.08;;
45043;SDS011;30784;48.490;9.688;2022-09-24T15:11:33;6.05;;;2.20;;
45043;SDS011;30784;48.490;9.688;2022-09-24T15:16:43;5.53;;;2.17;;
45043;SDS011;30784;48.490;9.688;2022-09-24T15:21:45;4.78;;;1.88;;
45043;SDS011;30784;48.490;9.688;2022-09-24T15:26:41;6.00;;;2.05;;
45043;SDS011;30784;48.490;9.688;2022-09-24T15:29:16;6.07;;;2.50;;
45043;SDS011;30784;48.490;9.688;2022-09-24T15:31:48;4.95;;;2.08;;
45043;SDS011;30784;48.490;9.688;2022-09-24T15:34:18;5.40;;;1.92;;
45043;SDS011;30784;48.490;9.688;2022-09-24T15:36:44;7.85;;;3.47;;
45043;SDS011;30784;48.490;9.688;2022-09-24T15:39:18;13.98;;;8.05;;
45043;SDS011;30784;48.490;9.688;2022-09-24T15:41:44;12.32;;;6.70;;
45043;SDS011;30784;48.490;9.688;2022-09-24T15:44:16;9.25;;;4.30;;
45043;SDS011;30784;48.490;9.688;2022-09-24T15:46:48;7.95;;;3.50;;
45043;SDS011;30784;48.490;9.688;2022-09-24T15:49:17;6.25;;;2.30;;
45043;SDS011;30784;48.490;9.688;2022-09-24T15:51:50;5.18;;;1.83;;
45043;SDS011;30784;48.490;9.688;2022-09-24T15:54:19;5.93;;;2.38;;
45043;SDS011;30784;48.490;9.688;2022-09-24T15:56:45;7.80;;;3.15;;
45043;SDS011;30784;48.490;9.688;2022-09-24T15:59:16;6.43;;;2.75;;
45043;SDS011;30784;48.490;9.688;2022-09-24T16:01:43;7.00;;;2.30;;
45043;SDS011;30784;48.490;9.688;2022-09-24T16:04:10;12.70;;;8.15;;
45043;SDS011;30784;48.490;9.688;2022-09-24T16:06:36;16.90;;;11.88;;
45043;SDS011;30784;48.490;9.688;2022-09-24T16:09:02;13.43;;;7.65;;
45043;SDS011;30784;48.490;9.688;2022-09-24T16:11:28;7.93;;;3.78;;
45043;SDS011;30784;48.490;9.688;2022-09-24T16:13:54;6.43;;;2.70;;
45043;SDS011;30784;48.490;9.688;2022-09-24T16:16:20;7.30;;;2.50;;
45043;SDS011;30784;48.490;9.688;2022-09-24T16:18:46;5.65;;;2.58;;
45043;SDS011;30784;48.490;9.688;2022-09-24T16:21:11;5.70;;;2.22;;
45043;SDS011;30784;48.490;9.688;2022-09-24T16:23:37;5.78;;;2.38;;
45043;SDS011;30784;48.490;9.688;2022-09-24T16:26:03;5.05;;;2.10;;
45043;SDS011;30784;48.490;9.688;2022-09-24T16:28:29;8.55;;;2.50;;
45043;SDS011;30784;48.490;9.688;2022-09-24T16:30:55;6.85;;;2.40;;
45043;SDS011;30784;48.490;9.688;2022-09-24T16:33:21;6.90;;;2.97;;
45043;SDS011;30784;48.490;9.688;2022-09-24T16:35:47;7.95;;;3.13;;
45043;SDS011;30784;48.490;9.688;2022-09-24T16:38:13;9.02;;;3.17;;
45043;SDS011;30784;48.490;9.688;2022-09-24T16:40:39;8.52;;;3.60;;
45043;SDS011;30784;48.490;9.688;2022-09-24T16:43:05;7.82;;;2.72;;
45043;SDS011;30784;48.490;9.688;2022-09-24T16:45:31;6.40;;;2.50;;
45043;SDS011;30784;48.490;9.688;2022-09-24T16:47:57;6.43;;;2.65;;
45043;SDS011;30784;48.490;9.688;2022-09-24T16:50:23;6.35;;;2.60;;
45043;SDS011;30784;48.490;9.688;2022-09-24T16:52:49;6.72;;;2.70;;
45043;SDS011;30784;48.490;9.688;2022-09-24T16:55:18;6.00;;;2.35;;
45043;SDS011;30784;48.490;9.688;2022-09-24T16:57:44;6.30;;;2.38;;
45043;SDS011;30784;48.490;9.688;2022-09-24T17:00:10;5.93;;;2.38;;
45043;SDS011;30784;48.490;9.688;2022-09-24T17:02:36;5.40;;;2.22;;
45043;SDS011;30784;48.490;9.688;2022-09-24T17:05:02;6.55;;;2.90;;
45043;SDS011;30784;48.490;9.688;2022-09-24T17:07:29;6.20;;;2.85;;
45043;SDS011;30784;48.490;9.688;2022-09-24T17:09:56;6.35;;;2.80;;
45043;SDS011;30784;48.490;9.688;2022-09-24T17:12:37;5.22;;;2.30;;
45043;SDS011;30784;48.490;9.688;2022-09-24T17:17:33;5.07;;;1.88;;
45043;SDS011;30784;48.490;9.688;2022-09-24T17:19:59;5.53;;;2.25;;
45043;SDS011;30784;48.490;9.688;2022-09-24T17:22:25;5.88;;;2.47;;
45043;SDS011;30784;48.490;9.688;2022-09-24T17:24:51;6.38;;;2.63;;
45043;SDS011;30784;48.490;9.688;2022-09-24T17:27:17;5.70;;;2.45;;
45043;SDS011;30784;48.490;9.688;2022-09-24T17:29:42;6.22;;;2.92;;